sensor_id;sensor_type;location;lat;lon;timestamp;pressure;altitude;pressure_sealevel;temperature;humidity
59194;BME280;44967;48.598;15.650;2023-12-20T00:00:00;98013.19;;;1.08;83.79
59194;BME280;44967;48.598;15.650;2023-12-20T00:02:25;98010.59;;;1.08;84.12
59194;BME280;44967;48.598;15.650;2023-12-20T00:04:51;98011.47;;;1.06;84.77
59194;BME280;44967;48.598;15.650;2023-12-20T00:07:17;98006.28;;;1.06;84.59
59194;BME280;44967;48.598;15.650;2023-12-20T00:09:42;98001.06;;;1.13;84.47
59194;BME280;44967;48.598;15.650;2023-12-20T00:12:09;98014.09;;;1.19;84.46
59194;BME280;44967;48.598;15.650;2023-12-20T00:14:35;98008.00;;;1.19;84.24
59194;BME280;44967;48.598;15.650;2023-12-20T00:17:03;97995.00;;;1.19;84.87
59194;BME280;44967;48.598;15.650;2023-12-20T00:19:28;97989.78;;;1.19;84.30
59194;BME280;44967;48.598;15.650;2023-12-20T00:21:54;98000.19;;;1.19;85.13
59194;BME280;44967;48.598;15.650;2023-12-20T00:24:20;98003.72;;;1.22;85.16
59194;BME280;44967;48.598;15.650;2023-12-20T00:26:46;97988.94;;;1.27;84.73
59194;BME280;44967;48.598;15.650;2023-12-20T00:29:12;98001.94;;;1.23;84.04
59194;BME280;44967;48.598;15.650;2023-12-20T00:31:37;97996.75;;;1.14;84.93
59194;BME280;44967;48.598;15.650;2023-12-20T00:34:03;97992.41;;;1.19;85.41
59194;BME280;44967;48.598;15.650;2023-12-20T00:36:29;97982.88;;;1.27;85.17
59194;BME280;44967;48.598;15.650;2023-12-20T00:38:55;97982.88;;;1.27;84.59
59194;BME280;44967;48.598;15.650;2023-12-20T00:41:20;97987.22;;;1.37;84.93
59194;BME280;44967;48.598;15.650;2023-12-20T00:43:46;97996.78;;;1.38;84.98
59194;BME280;44967;48.598;15.650;2023-12-20T00:46:12;97985.47;;;1.36;84.66
59194;BME280;44967;48.598;15.650;2023-12-20T00:48:38;97983.72;;;1.30;84.54
59194;BME280;44967;48.598;15.650;2023-12-20T00:51:03;97980.28;;;1.33;84.86
59194;BME280;44967;48.598;15.650;2023-12-20T00:53:29;97981.13;;;1.35;84.96
59194;BME280;44967;48.598;15.650;2023-12-20T00:55:55;97974.22;;;1.37;85.23
59194;BME280;44967;48.598;15.650;2023-12-20T00:58:21;97972.47;;;1.30;84.87
59194;BME280;44967;48.598;15.650;2023-12-20T01:00:47;97967.25;;;1.21;84.83
59194;BME280;44967;48.598;15.650;2023-12-20T01:03:13;97969.00;;;1.20;84.77
59194;BME280;44967;48.598;15.650;2023-12-20T01:05:39;97959.44;;;1.19;85.55
59194;BME280;44967;48.598;15.650;2023-12-20T01:08:05;97966.38;;;1.19;85.14
59194;BME280;44967;48.598;15.650;2023-12-20T01:10:31;97956.00;;;1.14;86.74
59194;BME280;44967;48.598;15.650;2023-12-20T01:12:57;97955.09;;;1.20;85.31
59194;BME280;44967;48.598;15.650;2023-12-20T01:15:22;97949.06;;;1.22;85.75
59194;BME280;44967;48.598;15.650;2023-12-20T01:17:48;97949.03;;;1.28;85.09
59194;BME280;44967;48.598;15.650;2023-12-20T01:20:14;97948.19;;;1.40;84.29
59194;BME280;44967;48.598;15.650;2023-12-20T01:22:40;97936.91;;;1.29;85.36
59194;BME280;44967;48.598;15.650;2023-12-20T01:25:08;97927.38;;;1.29;85.36
59194;BME280;44967;48.598;15.650;2023-12-20T01:27:34;97932.56;;;1.34;85.93
59194;BME280;44967;48.598;15.650;2023-12-20T01:30:00;97919.53;;;1.40;85.27
59194;BME280;44967;48.598;15.650;2023-12-20T01:32:25;97931.69;;;1.41;84.44
59194;BME280;44967;48.598;15.650;2023-12-20T01:34:51;97919.56;;;1.37;84.61
59194;BME280;44967;48.598;15.650;2023-12-20T01:37:17;97916.94;;;1.43;85.76
59194;BME280;44967;48.598;15.650;2023-12-20T01:39:43;97910.00;;;1.42;85.35
59194;BME280;44967;48.598;15.650;2023-12-20T01:42:08;97900.47;;;1.46;85.74
59194;BME280;44967;48.598;15.650;2023-12-20T01:44:34;97913.47;;;1.56;85.24
59194;BME280;44967;48.598;15.650;2023-12-20T01:47:00;97902.19;;;1.48;85.35
59194;BME280;44967;48.598;15.650;2023-12-20T01:49:26;97895.22;;;1.55;85.21
59194;BME280;44967;48.598;15.650;2023-12-20T01:51:52;97891.78;;;1.53;85.24
59194;BME280;44967;48.598;15.650;2023-12-20T01:54:19;97891.75;;;1.56;84.33
59194;BME280;44967;48.598;15.650;2023-12-20T01:56:46;97885.69;;;1.52;85.06
59194;BME280;44967;48.598;15.650;2023-12-20T01:59:12;97885.72;;;1.49;85.21
59194;BME280;44967;48.598;15.650;2023-12-20T02:01:38;97886.56;;;1.51;85.15
59194;BME280;44967;48.598;15.650;2023-12-20T02:04:04;97880.47;;;1.52;84.92
59194;BME280;44967;48.598;15.650;2023-12-20T02:06:30;97887.44;;;1.50;84.59
59194;BME280;44967;48.598;15.650;2023-12-20T02:08:59;97882.25;;;1.41;84.38
59194;BME280;44967;48.598;15.650;2023-12-20T02:11:26;97885.72;;;1.32;84.95
59194;BME280;44967;48.598;15.650;2023-12-20T02:13:53;97877.88;;;1.38;85.29
59194;BME280;44967;48.598;15.650;2023-12-20T02:16:18;97874.44;;;1.46;84.45
59194;BME280;44967;48.598;15.650;2023-12-20T02:18:44;97868.34;;;1.40;84.84
59194;BME280;44967;48.598;15.650;2023-12-20T02:21:10;97855.34;;;1.45;84.23
59194;BME280;44967;48.598;15.650;2023-12-20T02:23:36;97857.91;;;1.47;85.05
59194;BME280;44967;48.598;15.650;2023-12-20T02:26:03;97858.78;;;1.47;85.20
59194;BME280;44967;48.598;15.650;2023-12-20T02:28:29;97855.34;;;1.45;85.88
59194;BME280;44967;48.598;15.650;2023-12-20T02:30:55;97851.84;;;1.52;85.24
59194;BME280;44967;48.598;15.650;2023-12-20T02:33:21;97861.38;;;1.55;85.06
59194;BME280;44967;48.598;15.650;2023-12-20T02:35:47;97855.28;;;1.59;84.27
59194;BME280;44967;48.598;15.650;2023-12-20T02:38:13;97844.91;;;1.62;84.92
59194;BME280;44967;48.598;15.650;2023-12-20T02:40:38;97843.13;;;1.73;84.38
59194;BME280;44967;48.598;15.650;2023-12-20T02:43:04;97843.09;;;1.76;84.46
59194;BME280;44967;48.598;15.650;2023-12-20T02:45:30;97837.00;;;1.78;83.72
59194;BME280;44967;48.598;15.650;2023-12-20T02:47:56;97836.16;;;1.70;83.69
59194;BME280;44967;48.598;15.650;2023-12-20T02:50:22;97837.91;;;1.67;83.58
59194;BME280;44967;48.598;15.650;2023-12-20T02:52:48;97831.00;;;1.64;84.56
59194;BME280;44967;48.598;15.650;2023-12-20T02:55:14;97824.03;;;1.66;84.45
59194;BME280;44967;48.598;15.650;2023-12-20T02:57:39;97830.09;;;1.68;84.27
59194;BME280;44967;48.598;15.650;2023-12-20T03:00:09;97821.44;;;1.68;83.83
59194;BME280;44967;48.598;15.650;2023-12-20T03:02:35;97821.44;;;1.69;84.19
59194;BME280;44967;48.598;15.650;2023-12-20T03:05:01;97818.78;;;1.75;83.88
59194;BME280;44967;48.598;15.650;2023-12-20T03:07:27;97825.75;;;1.76;83.17
59194;BME280;44967;48.598;15.650;2023-12-20T03:09:53;97832.69;;;1.77;83.16
59194;BME280;44967;48.598;15.650;2023-12-20T03:12:18;97837.03;;;1.75;83.14
59194;BME280;44967;48.598;15.650;2023-12-20T03:14:44;97822.25;;;1.80;83.60
59194;BME280;44967;48.598;15.650;2023-12-20T03:17:10;97830.94;;;1.81;83.10
59194;BME280;44967;48.598;15.650;2023-12-20T03:19:36;97826.56;;;1.89;83.38
59194;BME280;44967;48.598;15.650;2023-12-20T03:22:01;97833.47;;;2.01;81.69
59194;BME280;44967;48.598;15.650;2023-12-20T03:24:27;97823.00;;;2.07;80.58
59194;BME280;44967;48.598;15.650;2023-12-20T03:26:53;97823.94;;;1.97;82.00
59194;BME280;44967;48.598;15.650;2023-12-20T03:29:19;97834.31;;;2.04;81.89
59194;BME280;44967;48.598;15.650;2023-12-20T03:31:45;97832.56;;;2.02;81.82
59194;BME280;44967;48.598;15.650;2023-12-20T03:34:11;97828.97;;;2.25;81.07
59194;BME280;44967;48.598;15.650;2023-12-20T03:36:37;97822.16;;;2.02;81.81
59194;BME280;44967;48.598;15.650;2023-12-20T03:39:03;97834.34;;;2.01;82.16
59194;BME280;44967;48.598;15.650;2023-12-20T03:41:28;97833.44;;;2.07;82.75
59194;BME280;44967;48.598;15.650;2023-12-20T03:43:54;97833.38;;;2.19;82.09
59194;BME280;44967;48.598;15.650;2023-12-20T03:46:19;97831.63;;;2.18;82.19
59194;BME280;44967;48.598;15.650;2023-12-20T03:48:45;97821.13;;;2.36;81.58
59194;BME280;44967;48.598;15.650;2023-12-20T03:51:11;97826.22;;;2.54;81.16
59194;BME280;44967;48.598;15.650;2023-12-20T03:53:36;97828.00;;;2.46;81.08
59194;BME280;44967;48.598;15.650;2023-12-20T03:56:02;97828.88;;;2.45;82.18
59194;BME280;44967;48.598;15.650;2023-12-20T03:58:28;97833.94;;;2.72;83.44
59194;BME280;44967;48.598;15.650;2023-12-20T04:00:53;97831.31;;;2.69;82.94
59194;BME280;44967;48.598;15.650;2023-12-20T04:03:19;97837.38;;;2.74;83.48
59194;BME280;44967;48.598;15.650;2023-12-20T04:05:44;97829.31;;;3.08;84.37
59194;BME280;44967;48.598;15.650;2023-12-20T04:08:11;97826.81;;;3.79;82.99
59194;BME280;44967;48.598;15.650;2023-12-20T04:10:36;97833.00;;;3.72;81.23
59194;BME280;44967;48.598;15.650;2023-12-20T04:13:03;97831.31;;;3.70;81.44
59194;BME280;44967;48.598;15.650;2023-12-20T04:15:30;97823.47;;;3.68;82.64
59194;BME280;44967;48.598;15.650;2023-12-20T04:17:55;97824.19;;;3.83;82.37
59194;BME280;44967;48.598;15.650;2023-12-20T04:20:21;97822.84;;;4.21;83.53
59194;BME280;44967;48.598;15.650;2023-12-20T04:22:47;97806.53;;;4.65;81.62
59194;BME280;44967;48.598;15.650;2023-12-20T04:25:12;97814.97;;;4.83;80.49
59194;BME280;44967;48.598;15.650;2023-12-20T04:27:38;97820.00;;;4.96;79.21
59194;BME280;44967;48.598;15.650;2023-12-20T04:30:04;97821.22;;;4.74;79.54
59194;BME280;44967;48.598;15.650;2023-12-20T04:32:30;97830.00;;;4.70;80.55
59194;BME280;44967;48.598;15.650;2023-12-20T04:34:57;97833.66;;;4.58;81.19
59194;BME280;44967;48.598;15.650;2023-12-20T04:37:22;97825.91;;;4.52;82.73
59194;BME280;44967;48.598;15.650;2023-12-20T04:39:48;97825.13;;;4.44;82.83
59194;BME280;44967;48.598;15.650;2023-12-20T04:42:14;97823.56;;;4.34;83.31
59194;BME280;44967;48.598;15.650;2023-12-20T04:44:40;97818.50;;;4.20;83.80
59194;BME280;44967;48.598;15.650;2023-12-20T04:47:05;97826.34;;;4.19;84.56
59194;BME280;44967;48.598;15.650;2023-12-20T04:49:31;97829.78;;;4.24;84.41
59194;BME280;44967;48.598;15.650;2023-12-20T04:51:57;97828.03;;;4.23;84.28
59194;BME280;44967;48.598;15.650;2023-12-20T04:54:22;97824.63;;;4.18;84.81
59194;BME280;44967;48.598;15.650;2023-12-20T04:56:49;97832.47;;;4.18;84.86
59194;BME280;44967;48.598;15.650;2023-12-20T04:59:14;97823.72;;;4.20;85.54
59194;BME280;44967;48.598;15.650;2023-12-20T05:01:40;97823.66;;;4.23;85.57
59194;BME280;44967;48.598;15.650;2023-12-20T05:04:06;97837.28;;;4.48;85.51
59194;BME280;44967;48.598;15.650;2023-12-20T05:06:32;97826.34;;;4.82;84.94
59194;BME280;44967;48.598;15.650;2023-12-20T05:08:58;97830.72;;;4.78;83.70
59194;BME280;44967;48.598;15.650;2023-12-20T05:11:24;97833.34;;;4.78;84.38
59194;BME280;44967;48.598;15.650;2023-12-20T05:13:49;97835.97;;;4.78;83.41
59194;BME280;44967;48.598;15.650;2023-12-20T05:16:16;97839.56;;;4.72;84.19
59194;BME280;44967;48.598;15.650;2023-12-20T05:18:44;97847.34;;;4.77;83.31
59194;BME280;44967;48.598;15.650;2023-12-20T05:21:10;97844.78;;;4.72;84.49
59194;BME280;44967;48.598;15.650;2023-12-20T05:23:36;97834.66;;;5.06;84.11
59194;BME280;44967;48.598;15.650;2023-12-20T05:26:01;97838.25;;;5.01;83.19
59194;BME280;44967;48.598;15.650;2023-12-20T05:28:27;97842.31;;;5.18;82.31
59194;BME280;44967;48.598;15.650;2023-12-20T05:30:56;97839.06;;;5.55;81.50
59194;BME280;44967;48.598;15.650;2023-12-20T05:33:21;97846.13;;;5.51;81.20
59194;BME280;44967;48.598;15.650;2023-12-20T05:35:47;97842.63;;;5.51;81.11
59194;BME280;44967;48.598;15.650;2023-12-20T05:38:13;97840.94;;;5.48;81.42
59194;BME280;44967;48.598;15.650;2023-12-20T05:40:38;97841.78;;;5.50;81.56
59194;BME280;44967;48.598;15.650;2023-12-20T05:43:04;97839.06;;;5.55;80.91
59194;BME280;44967;48.598;15.650;2023-12-20T05:45:29;97834.91;;;5.43;81.37
59194;BME280;44967;48.598;15.650;2023-12-20T05:47:55;97825.44;;;5.35;82.19
59194;BME280;44967;48.598;15.650;2023-12-20T05:50:21;97815.91;;;5.32;82.24
59194;BME280;44967;48.598;15.650;2023-12-20T05:52:46;97821.78;;;5.45;82.43
59194;BME280;44967;48.598;15.650;2023-12-20T05:55:12;97831.41;;;5.44;82.38
59194;BME280;44967;48.598;15.650;2023-12-20T05:57:38;97830.81;;;5.27;82.70
59194;BME280;44967;48.598;15.650;2023-12-20T06:00:04;97846.63;;;5.22;84.04
59194;BME280;44967;48.598;15.650;2023-12-20T06:02:30;97828.88;;;5.38;83.48
59194;BME280;44967;48.598;15.650;2023-12-20T06:04:55;97834.91;;;5.43;83.82
59194;BME280;44967;48.598;15.650;2023-12-20T06:07:21;97841.16;;;5.36;84.80
59194;BME280;44967;48.598;15.650;2023-12-20T06:09:47;97847.47;;;5.25;85.68
59194;BME280;44967;48.598;15.650;2023-12-20T06:12:12;97868.63;;;5.11;86.69
59194;BME280;44967;48.598;15.650;2023-12-20T06:14:38;97873.81;;;5.14;87.81
59194;BME280;44967;48.598;15.650;2023-12-20T06:17:04;97873.94;;;5.08;88.07
59194;BME280;44967;48.598;15.650;2023-12-20T06:19:30;97872.78;;;5.24;86.84
59194;BME280;44967;48.598;15.650;2023-12-20T06:21:56;97870.97;;;5.29;85.25
59194;BME280;44967;48.598;15.650;2023-12-20T06:24:22;97868.19;;;5.38;84.83
59194;BME280;44967;48.598;15.650;2023-12-20T06:26:48;97873.22;;;5.50;83.95
59194;BME280;44967;48.598;15.650;2023-12-20T06:29:14;97872.91;;;5.68;83.74
59194;BME280;44967;48.598;15.650;2023-12-20T06:31:40;97882.25;;;5.82;82.55
59194;BME280;44967;48.598;15.650;2023-12-20T06:34:05;97879.81;;;5.73;83.42
59194;BME280;44967;48.598;15.650;2023-12-20T06:36:31;97891.34;;;5.62;85.61
59194;BME280;44967;48.598;15.650;2023-12-20T06:38:57;97896.75;;;5.53;85.97
59194;BME280;44967;48.598;15.650;2023-12-20T06:41:23;97901.16;;;5.51;86.35
59194;BME280;44967;48.598;15.650;2023-12-20T06:43:50;97884.81;;;5.36;88.42
59194;BME280;44967;48.598;15.650;2023-12-20T06:46:17;97876.22;;;5.29;89.35
59194;BME280;44967;48.598;15.650;2023-12-20T06:48:43;97857.97;;;5.23;91.08
59194;BME280;44967;48.598;15.650;2023-12-20T06:51:14;97858.97;;;5.14;92.28
59194;BME280;44967;48.598;15.650;2023-12-20T06:53:41;97872.06;;;5.14;92.70
59194;BME280;44967;48.598;15.650;2023-12-20T06:56:06;97886.03;;;5.15;92.96
59194;BME280;44967;48.598;15.650;2023-12-20T06:58:33;97896.53;;;5.13;93.33
59194;BME280;44967;48.598;15.650;2023-12-20T07:00:58;97893.94;;;5.12;92.97
59194;BME280;44967;48.598;15.650;2023-12-20T07:03:24;97901.84;;;5.09;93.14
59194;BME280;44967;48.598;15.650;2023-12-20T07:05:50;97913.19;;;5.08;93.31
59194;BME280;44967;48.598;15.650;2023-12-20T07:08:16;97908.78;;;5.11;93.83
59194;BME280;44967;48.598;15.650;2023-12-20T07:10:41;97911.38;;;5.13;93.41
59194;BME280;44967;48.598;15.650;2023-12-20T07:13:07;97918.22;;;5.21;92.16
59194;BME280;44967;48.598;15.650;2023-12-20T07:15:33;97917.28;;;5.26;91.54
59194;BME280;44967;48.598;15.650;2023-12-20T07:17:59;97914.78;;;5.19;92.50
59194;BME280;44967;48.598;15.650;2023-12-20T07:20:26;97913.03;;;5.18;93.23
59194;BME280;44967;48.598;15.650;2023-12-20T07:22:51;97921.81;;;5.17;92.20
59194;BME280;44967;48.598;15.650;2023-12-20T07:25:17;97927.94;;;5.15;93.23
59194;BME280;44967;48.598;15.650;2023-12-20T07:27:43;97914.81;;;5.16;93.58
59194;BME280;44967;48.598;15.650;2023-12-20T07:30:09;97926.06;;;5.25;93.32
59194;BME280;44967;48.598;15.650;2023-12-20T07:32:35;97923.38;;;5.28;91.40
59194;BME280;44967;48.598;15.650;2023-12-20T07:35:01;97918.22;;;5.21;91.22
59194;BME280;44967;48.598;15.650;2023-12-20T07:37:28;97923.25;;;5.34;90.15
59194;BME280;44967;48.598;15.650;2023-12-20T07:39:54;97939.91;;;5.33;89.68
59194;BME280;44967;48.598;15.650;2023-12-20T07:42:19;97935.47;;;5.35;89.24
59194;BME280;44967;48.598;15.650;2023-12-20T07:44:47;97934.53;;;5.40;88.15
59194;BME280;44967;48.598;15.650;2023-12-20T07:47:12;97947.38;;;5.57;87.02
59194;BME280;44967;48.598;15.650;2023-12-20T07:49:41;97950.06;;;5.51;86.81
59194;BME280;44967;48.598;15.650;2023-12-20T07:52:07;97950.94;;;5.53;86.73
59194;BME280;44967;48.598;15.650;2023-12-20T07:54:33;97949.19;;;5.52;88.98
59194;BME280;44967;48.598;15.650;2023-12-20T07:56:59;97960.81;;;5.34;89.42
59194;BME280;44967;48.598;15.650;2023-12-20T07:59:24;97954.81;;;5.26;90.10
59194;BME280;44967;48.598;15.650;2023-12-20T08:01:50;97967.78;;;5.35;89.67
59194;BME280;44967;48.598;15.650;2023-12-20T08:04:16;97968.56;;;5.42;88.00
59194;BME280;44967;48.598;15.650;2023-12-20T08:06:42;97952.69;;;5.51;87.52
59194;BME280;44967;48.598;15.650;2023-12-20T08:09:07;97953.63;;;5.48;86.24
59194;BME280;44967;48.598;15.650;2023-12-20T08:11:33;97971.22;;;5.40;88.08
59194;BME280;44967;48.598;15.650;2023-12-20T08:13:58;97971.41;;;5.28;89.20
59194;BME280;44967;48.598;15.650;2023-12-20T08:16:24;97972.31;;;5.24;91.38
59194;BME280;44967;48.598;15.650;2023-12-20T08:18:50;97977.63;;;5.18;92.39
59194;BME280;44967;48.598;15.650;2023-12-20T08:21:16;97982.09;;;5.13;93.29
59194;BME280;44967;48.598;15.650;2023-12-20T08:23:45;97993.34;;;5.18;92.49
59194;BME280;44967;48.598;15.650;2023-12-20T08:26:11;97992.41;;;5.22;91.44
59194;BME280;44967;48.598;15.650;2023-12-20T08:28:37;97988.94;;;5.23;90.86
59194;BME280;44967;48.598;15.650;2023-12-20T08:31:03;97986.25;;;5.28;90.51
59194;BME280;44967;48.598;15.650;2023-12-20T08:33:28;98005.53;;;5.22;91.96
59194;BME280;44967;48.598;15.650;2023-12-20T08:35:54;98011.66;;;5.21;92.53
59194;BME280;44967;48.598;15.650;2023-12-20T08:38:19;98007.25;;;5.23;93.97
59194;BME280;44967;48.598;15.650;2023-12-20T08:40:46;98005.47;;;5.27;93.42
59194;BME280;44967;48.598;15.650;2023-12-20T08:43:11;98011.69;;;5.18;92.37
59194;BME280;44967;48.598;15.650;2023-12-20T08:45:38;98018.72;;;5.16;93.17
59194;BME280;44967;48.598;15.650;2023-12-20T08:48:04;98031.84;;;5.13;93.98
59194;BME280;44967;48.598;15.650;2023-12-20T08:50:30;98029.91;;;5.29;93.18
59194;BME280;44967;48.598;15.650;2023-12-20T08:52:56;98022.00;;;5.30;90.82
59194;BME280;44967;48.598;15.650;2023-12-20T08:55:22;98028.75;;;5.46;91.79
59194;BME280;44967;48.598;15.650;2023-12-20T08:57:48;98030.81;;;5.25;89.80
59194;BME280;44967;48.598;15.650;2023-12-20T09:00:14;98029.84;;;5.33;89.23
59194;BME280;44967;48.598;15.650;2023-12-20T09:02:41;98025.50;;;5.31;88.73
59194;BME280;44967;48.598;15.650;2023-12-20T09:05:07;98027.28;;;5.26;90.16
59194;BME280;44967;48.598;15.650;2023-12-20T09:07:33;98031.84;;;5.13;91.48
59194;BME280;44967;48.598;15.650;2023-12-20T09:09:59;98018.81;;;5.08;91.10
59194;BME280;44967;48.598;15.650;2023-12-20T09:12:24;98018.81;;;5.07;90.83
59194;BME280;44967;48.598;15.650;2023-12-20T09:14:51;98025.69;;;5.17;90.89
59194;BME280;44967;48.598;15.650;2023-12-20T09:17:18;98022.09;;;5.24;90.25
59194;BME280;44967;48.598;15.650;2023-12-20T09:19:45;98021.22;;;5.25;88.70
59194;BME280;44967;48.598;15.650;2023-12-20T09:22:12;98018.50;;;5.31;87.97
59194;BME280;44967;48.598;15.650;2023-12-20T09:24:38;98021.06;;;5.34;87.94
59194;BME280;44967;48.598;15.650;2023-12-20T09:27:05;98024.44;;;5.42;85.17
59194;BME280;44967;48.598;15.650;2023-12-20T09:29:31;98022.75;;;5.40;84.72
59194;BME280;44967;48.598;15.650;2023-12-20T09:31:57;98028.94;;;5.34;85.98
59194;BME280;44967;48.598;15.650;2023-12-20T09:34:23;98015.00;;;5.32;85.42
59194;BME280;44967;48.598;15.650;2023-12-20T09:36:51;98008.78;;;5.38;85.92
59194;BME280;44967;48.598;15.650;2023-12-20T09:39:19;98007.97;;;5.34;85.16
59194;BME280;44967;48.598;15.650;2023-12-20T09:42:00;98000.03;;;5.40;86.38
59194;BME280;44967;48.598;15.650;2023-12-20T09:44:27;97999.00;;;5.50;83.52
59194;BME280;44967;48.598;15.650;2023-12-20T09:46:54;98001.63;;;5.50;83.35
59194;BME280;44967;48.598;15.650;2023-12-20T09:49:21;98001.66;;;5.49;82.75
59194;BME280;44967;48.598;15.650;2023-12-20T09:51:50;97987.56;;;5.56;82.01
59194;BME280;44967;48.598;15.650;2023-12-20T09:54:21;97991.06;;;5.55;81.50
59194;BME280;44967;48.598;15.650;2023-12-20T09:56:47;97985.78;;;5.58;80.36
59194;BME280;44967;48.598;15.650;2023-12-20T09:59:13;97970.78;;;5.67;79.31
59194;BME280;44967;48.598;15.650;2023-12-20T10:01:40;97968.28;;;5.60;80.62
59194;BME280;44967;48.598;15.650;2023-12-20T10:04:08;97967.34;;;5.64;79.98
59194;BME280;44967;48.598;15.650;2023-12-20T10:06:36;97963.72;;;5.73;80.05
59194;BME280;44967;48.598;15.650;2023-12-20T10:09:02;97958.47;;;5.73;79.81
59194;BME280;44967;48.598;15.650;2023-12-20T10:11:28;97967.91;;;5.83;79.77
59194;BME280;44967;48.598;15.650;2023-12-20T10:13:59;97960.72;;;5.94;80.20
59194;BME280;44967;48.598;15.650;2023-12-20T10:16:25;97960.81;;;5.91;79.06
59194;BME280;44967;48.598;15.650;2023-12-20T10:18:53;97963.31;;;5.97;78.83
59194;BME280;44967;48.598;15.650;2023-12-20T10:21:19;97962.47;;;5.95;79.40
59194;BME280;44967;48.598;15.650;2023-12-20T10:23:45;97958.75;;;6.06;77.14
59194;BME280;44967;48.598;15.650;2023-12-20T10:26:19;97950.03;;;6.06;77.19
59194;BME280;44967;48.598;15.650;2023-12-20T10:28:50;97946.53;;;6.05;77.92
59194;BME280;44967;48.598;15.650;2023-12-20T10:31:32;97949.75;;;6.21;77.06
59194;BME280;44967;48.598;15.650;2023-12-20T10:34:00;97950.75;;;6.14;76.74
59194;BME280;44967;48.598;15.650;2023-12-20T10:36:27;97941.00;;;6.21;77.84
59194;BME280;44967;48.598;15.650;2023-12-20T10:38:54;97936.69;;;6.18;78.43
59194;BME280;44967;48.598;15.650;2023-12-20T10:41:29;97941.88;;;6.21;78.85
59194;BME280;44967;48.598;15.650;2023-12-20T10:44:04;97935.59;;;6.28;76.77
59194;BME280;44967;48.598;15.650;2023-12-20T10:46:31;97939.97;;;6.29;76.79
59194;BME280;44967;48.598;15.650;2023-12-20T10:49:02;97938.22;;;6.28;76.53
59194;BME280;44967;48.598;15.650;2023-12-20T10:51:28;97930.47;;;6.24;75.24
59194;BME280;44967;48.598;15.650;2023-12-20T10:53:57;97934.84;;;6.23;76.95
59194;BME280;44967;48.598;15.650;2023-12-20T10:56:22;97934.78;;;6.26;76.02
59194;BME280;44967;48.598;15.650;2023-12-20T10:58:50;97930.19;;;6.37;76.38
59194;BME280;44967;48.598;15.650;2023-12-20T11:01:18;97917.22;;;6.31;77.38
59194;BME280;44967;48.598;15.650;2023-12-20T11:03:48;97917.91;;;6.39;76.28
59194;BME280;44967;48.598;15.650;2023-12-20T11:06:37;97911.41;;;6.57;74.76
59194;BME280;44967;48.598;15.650;2023-12-20T11:09:24;97916.75;;;6.52;74.18
59194;BME280;44967;48.598;15.650;2023-12-20T11:14:42;97898.97;;;6.67;74.01
59194;BME280;44967;48.598;15.650;2023-12-20T11:17:13;97906.69;;;6.73;74.18
59194;BME280;44967;48.598;15.650;2023-12-20T11:22:29;97901.44;;;6.74;73.30
59194;BME280;44967;48.598;15.650;2023-12-20T11:25:07;97916.22;;;6.78;73.69
59194;BME280;44967;48.598;15.650;2023-12-20T11:27:40;97912.59;;;6.84;72.28
59194;BME280;44967;48.598;15.650;2023-12-20T11:30:06;97914.19;;;6.91;73.46
59194;BME280;44967;48.598;15.650;2023-12-20T11:32:34;97906.38;;;6.88;72.30
59194;BME280;44967;48.598;15.650;2023-12-20T11:37:35;97896.56;;;6.96;72.06
59194;BME280;44967;48.598;15.650;2023-12-20T11:40:05;97901.00;;;6.94;73.49
59194;BME280;44967;48.598;15.650;2023-12-20T11:42:41;97906.19;;;6.95;73.27
59194;BME280;44967;48.598;15.650;2023-12-20T11:45:13;97904.50;;;6.94;72.37
59194;BME280;44967;48.598;15.650;2023-12-20T11:47:43;97909.56;;;7.02;72.21
59194;BME280;44967;48.598;15.650;2023-12-20T11:50:09;97905.09;;;7.07;71.94
59194;BME280;44967;48.598;15.650;2023-12-20T11:52:35;97903.41;;;7.03;70.86
59194;BME280;44967;48.598;15.650;2023-12-20T11:55:01;97907.66;;;7.08;70.79
59194;BME280;44967;48.598;15.650;2023-12-20T11:57:27;97905.00;;;7.10;70.99
59194;BME280;44967;48.598;15.650;2023-12-20T11:59:53;97898.72;;;7.16;72.48
59194;BME280;44967;48.598;15.650;2023-12-20T12:02:18;97884.63;;;7.20;72.59
59194;BME280;44967;48.598;15.650;2023-12-20T12:04:44;97886.22;;;7.27;70.97
59194;BME280;44967;48.598;15.650;2023-12-20T12:07:10;97887.94;;;7.28;70.87
59194;BME280;44967;48.598;15.650;2023-12-20T12:09:36;97889.94;;;7.18;71.44
59194;BME280;44967;48.598;15.650;2023-12-20T12:12:03;97899.66;;;7.13;70.38
59194;BME280;44967;48.598;15.650;2023-12-20T12:14:28;97898.69;;;7.17;71.77
59194;BME280;44967;48.598;15.650;2023-12-20T12:16:54;97893.94;;;6.96;69.70
59194;BME280;44967;48.598;15.650;2023-12-20T12:19:24;97872.88;;;6.99;70.02
59194;BME280;44967;48.598;15.650;2023-12-20T12:21:51;97874.06;;;6.84;69.98
59194;BME280;44967;48.598;15.650;2023-12-20T12:24:20;97890.50;;;6.94;71.67
59194;BME280;44967;48.598;15.650;2023-12-20T12:26:53;97881.03;;;6.87;70.43
59194;BME280;44967;48.598;15.650;2023-12-20T12:29:22;97881.16;;;6.81;70.17
59194;BME280;44967;48.598;15.650;2023-12-20T12:31:50;97882.03;;;6.80;72.19
59194;BME280;44967;48.598;15.650;2023-12-20T12:34:17;97892.53;;;6.80;71.14
59194;BME280;44967;48.598;15.650;2023-12-20T12:36:44;97895.22;;;6.78;70.83
59194;BME280;44967;48.598;15.650;2023-12-20T12:39:15;97900.66;;;6.69;69.52
59194;BME280;44967;48.598;15.650;2023-12-20T12:41:41;97886.72;;;6.66;71.19
59194;BME280;44967;48.598;15.650;2023-12-20T12:44:07;97889.03;;;6.81;70.18
59194;BME280;44967;48.598;15.650;2023-12-20T12:46:33;97879.63;;;6.71;70.46
59194;BME280;44967;48.598;15.650;2023-12-20T12:48:58;97879.38;;;6.83;70.49
59194;BME280;44967;48.598;15.650;2023-12-20T12:51:25;97887.25;;;6.81;71.86
59194;BME280;44967;48.598;15.650;2023-12-20T12:53:51;97878.69;;;6.73;71.21
59194;BME280;44967;48.598;15.650;2023-12-20T12:56:16;97888.13;;;6.82;71.20
59194;BME280;44967;48.598;15.650;2023-12-20T12:58:42;97887.94;;;6.91;72.19
59194;BME280;44967;48.598;15.650;2023-12-20T13:01:08;97871.81;;;7.06;70.45
59194;BME280;44967;48.598;15.650;2023-12-20T13:03:35;97867.72;;;6.94;70.63